Terminal Aerodrome Forecast
Issued by NWS

Current Version | Previous Version | Text Only | Print | Product List | Glossary On
Versions: 1 2 3 4 5 6 7 8 9 10 11 12 13 14 15 16 17 18 19
535
FTUS43 KIND 260202 AAA
TAFHUF
TAF AMD
KHUF 260202Z 2602/2624 02003KT P6SM SCT035 BKN250
     FM260800 04002KT 4SM BR SCT040 BKN150
     FM261300 09005KT P6SM SCT040 BKN200
     FM261900 VRB05KT P6SM BKN040=

USA.gov is the U.S. government's official web portal to all federal, state and local government web resources and services.